Time;durP1;ratioP1;P1;durP2;ratioP2;P2;SDS_P1;SDS_P2;PMS_P1;PMS_P2;Temp;Humidity;BMP_temperature;BMP_pressure;BME280_temperature;BME280_humidity;BME280_pressure;Samples;Min_cycle;Max_cycle;Signal;HPM_P1;HPM_P2
2023/02/04 00:00:22;;;;;;;;;;;19.10;50.50;;;;;;7673017;23;19951;-69
2023/02/04 00:03:22;;;;;;;;;;;19.20;50.50;;;;;;7672727;23;19911;-69
2023/02/04 00:06:24;;;;;;;;;;;19.10;50.40;;;;;;7673934;23;19909;-69
2023/02/04 00:09:25;;;;;;;;;;;19.20;50.50;;;;;;7673941;23;19907;-69
2023/02/04 00:12:25;;;;;;;;;;;19.20;50.60;;;;;;7674604;23;19905;-69
2023/02/04 00:15:26;;;;;;;;;;;19.20;50.50;;;;;;7672722;23;19905;-69
2023/02/04 00:18:27;;;;;;;;;;;19.10;50.30;;;;;;7674641;23;19927;-69
2023/02/04 00:21:27;;;;;;;;;;;19.20;50.50;;;;;;7672768;23;19915;-69
2023/02/04 00:24:29;;;;;;;;;;;19.20;50.50;;;;;;7673764;23;19904;-69
2023/02/04 00:27:29;;;;;;;;;;;19.10;50.40;;;;;;7672182;23;19908;-70
2023/02/04 00:30:30;;;;;;;;;;;19.20;50.50;;;;;;7674032;23;19911;-69
2023/02/04 00:33:30;;;;;;;;;;;19.10;50.40;;;;;;7674128;23;19935;-69
2023/02/04 00:36:31;;;;;;;;;;;19.20;50.40;;;;;;7672380;23;19915;-69
2023/02/04 00:39:31;;;;;;;;;;;19.20;50.40;;;;;;7673984;23;19907;-69
2023/02/04 00:42:32;;;;;;;;;;;19.10;50.40;;;;;;7674501;23;19974;-69
2023/02/04 00:45:33;;;;;;;;;;;19.20;50.40;;;;;;7673473;23;19904;-69
2023/02/04 00:48:34;;;;;;;;;;;19.20;50.50;;;;;;7673922;23;19932;-69
2023/02/04 00:51:38;;;;;;;;;;;19.10;50.20;;;;;;7672199;23;19912;-69
2023/02/04 00:54:39;;;;;;;;;;;19.20;50.40;;;;;;7673978;23;19947;-69
2023/02/04 00:57:39;;;;;;;;;;;19.10;50.30;;;;;;7672071;23;20471;-69
2023/02/04 01:00:40;;;;;;;;;;;19.20;50.50;;;;;;7672367;23;19904;-69
2023/02/04 01:03:40;;;;;;;;;;;19.10;50.30;;;;;;7674002;23;19935;-69
2023/02/04 01:06:41;;;;;;;;;;;19.10;50.30;;;;;;7673225;23;20380;-69
2023/02/04 01:09:41;;;;;;;;;;;19.20;50.50;;;;;;7673912;23;19904;-69
2023/02/04 01:12:42;;;;;;;;;;;19.20;50.60;;;;;;7673687;23;19905;-69
2023/02/04 01:15:42;;;;;;;;;;;19.20;50.70;;;;;;7673516;23;19905;-69
2023/02/04 01:18:43;;;;;;;;;;;19.20;50.50;;;;;;7673367;23;19995;-70
2023/02/04 01:21:44;;;;;;;;;;;19.20;50.50;;;;;;7673590;23;19912;-70
2023/02/04 01:24:44;;;;;;;;;;;19.10;50.50;;;;;;7673226;23;19904;-69
2023/02/04 01:27:45;;;;;;;;;;;19.10;51.20;;;;;;7671704;23;19959;-69
2023/02/04 01:30:46;;;;;;;;;;;19.20;50.60;;;;;;7673265;23;19908;-69
2023/02/04 01:33:46;;;;;;;;;;;19.20;50.60;;;;;;7673354;23;20289;-70
2023/02/04 01:36:47;;;;;;;;;;;19.20;50.60;;;;;;7673246;23;19909;-69
2023/02/04 01:39:47;;;;;;;;;;;19.10;50.40;;;;;;7673340;23;19982;-69
2023/02/04 01:42:48;;;;;;;;;;;19.20;50.40;;;;;;7673299;23;19942;-70
2023/02/04 01:45:49;;;;;;;;;;;19.10;50.40;;;;;;7673214;23;19908;-69
2023/02/04 01:48:49;;;;;;;;;;;19.20;50.60;;;;;;7672854;23;20035;-70
2023/02/04 01:51:50;;;;;;;;;;;19.20;50.50;;;;;;7673661;23;19983;-70
2023/02/04 01:54:51;;;;;;;;;;;19.20;50.50;;;;;;7672723;23;20362;-69
2023/02/04 01:57:52;;;;;;;;;;;19.20;50.50;;;;;;7673227;23;19923;-70
2023/02/04 02:00:53;;;;;;;;;;;19.10;50.50;;;;;;7672870;23;19979;-69
2023/02/04 02:03:53;;;;;;;;;;;19.10;50.40;;;;;;7673323;23;20319;-69
2023/02/04 02:06:57;;;;;;;;;;;19.10;50.30;;;;;;7672478;23;20366;-69
2023/02/04 02:09:58;;;;;;;;;;;19.20;50.60;;;;;;7671771;23;19919;-70
2023/02/04 02:12:58;;;;;;;;;;;19.20;50.60;;;;;;7673298;23;19908;-70
2023/02/04 02:15:59;;;;;;;;;;;19.20;50.60;;;;;;7673042;23;19916;-70
2023/02/04 02:18:59;;;;;;;;;;;19.10;50.50;;;;;;7672822;23;20342;-69
2023/02/04 02:22:05;;;;;;;;;;;19.10;50.60;;;;;;7673485;23;19908;-70
2023/02/04 02:25:12;;;;;;;;;;;19.10;50.60;;;;;;7673153;23;19914;-69
2023/02/04 02:28:14;;;;;;;;;;;19.10;50.50;;;;;;7672789;23;19947;-70
2023/02/04 02:31:17;;;;;;;;;;;19.10;50.40;;;;;;7671415;23;20378;-70
2023/02/04 02:34:17;;;;;;;;;;;19.10;50.50;;;;;;7673035;23;19928;-70
2023/02/04 02:37:18;;;;;;;;;;;19.10;50.50;;;;;;7673190;23;19908;-70
2023/02/04 02:40:19;;;;;;;;;;;19.10;51.20;;;;;;7671355;23;19904;-70
2023/02/04 02:43:21;;;;;;;;;;;19.10;50.60;;;;;;7672000;23;19911;-69
2023/02/04 02:46:22;;;;;;;;;;;19.10;50.50;;;;;;7672684;23;19909;-70
2023/02/04 02:49:22;;;;;;;;;;;19.20;50.60;;;;;;7672747;23;19900;-70
2023/02/04 02:52:23;;;;;;;;;;;19.10;50.50;;;;;;7673124;23;19912;-70
2023/02/04 02:55:25;;;;;;;;;;;19.10;50.50;;;;;;7673054;23;19924;-69
2023/02/04 02:58:28;;;;;;;;;;;19.20;50.60;;;;;;7672926;23;19928;-70
2023/02/04 03:01:28;;;;;;;;;;;19.10;50.50;;;;;;7673113;23;19912;-69
2023/02/04 03:04:30;;;;;;;;;;;19.20;50.60;;;;;;7671643;23;20270;-69
2023/02/04 03:07:32;;;;;;;;;;;19.10;51.10;;;;;;7671046;23;19971;-70
2023/02/04 03:10:33;;;;;;;;;;;19.10;50.50;;;;;;7672571;23;19904;-70
2023/02/04 03:13:33;;;;;;;;;;;19.10;50.50;;;;;;7673083;23;19911;-69
2023/02/04 03:16:36;;;;;;;;;;;19.10;50.50;;;;;;7672867;23;19912;-70
2023/02/04 03:19:37;;;;;;;;;;;19.20;50.70;;;;;;7672752;23;19904;-70
2023/02/04 03:22:38;;;;;;;;;;;19.10;50.50;;;;;;7671695;23;20291;-70
2023/02/04 03:25:39;;;;;;;;;;;19.10;50.40;;;;;;7672696;23;19998;-70
2023/02/04 03:28:41;;;;;;;;;;;19.10;50.50;;;;;;7672549;23;19905;-69
2023/02/04 03:31:41;;;;;;;;;;;19.10;50.50;;;;;;7672976;23;19991;-70
2023/02/04 03:34:42;;;;;;;;;;;19.20;50.60;;;;;;7672309;23;19930;-69
2023/02/04 03:37:42;;;;;;;;;;;19.10;50.50;;;;;;7672852;23;19904;-69
2023/02/04 03:40:43;;;;;;;;;;;19.10;50.50;;;;;;7672429;23;20030;-69
2023/02/04 03:43:44;;;;;;;;;;;19.10;50.60;;;;;;7673841;23;19904;-69
2023/02/04 03:46:45;;;;;;;;;;;19.10;50.50;;;;;;7674706;23;20292;-70
2023/02/04 03:49:45;;;;;;;;;;;19.10;50.50;;;;;;7673800;23;19954;-70
2023/02/04 03:52:47;;;;;;;;;;;19.10;50.60;;;;;;7673164;23;19913;-70
2023/02/04 03:55:48;;;;;;;;;;;19.10;50.60;;;;;;7675176;23;19947;-69
2023/02/04 03:58:49;;;;;;;;;;;19.10;50.60;;;;;;7674490;23;19932;-69
2023/02/04 04:01:51;;;;;;;;;;;19.10;50.60;;;;;;7674697;23;19908;-69
2023/02/04 04:04:51;;;;;;;;;;;19.20;50.70;;;;;;7674517;23;20396;-69
2023/02/04 04:07:52;;;;;;;;;;;19.10;50.60;;;;;;7674517;23;19908;-70
2023/02/04 04:10:53;;;;;;;;;;;19.10;50.60;;;;;;7674616;23;20325;-70
2023/02/04 04:13:54;;;;;;;;;;;19.10;50.50;;;;;;7673267;23;19904;-70
2023/02/04 04:16:55;;;;;;;;;;;19.10;50.60;;;;;;7675054;23;20343;-69
2023/02/04 04:19:55;;;;;;;;;;;19.10;50.60;;;;;;7674375;23;19904;-69
2023/02/04 04:22:56;;;;;;;;;;;19.10;50.60;;;;;;7674363;23;19986;-69
2023/02/04 04:25:56;;;;;;;;;;;19.10;50.60;;;;;;7672598;23;20335;-69
2023/02/04 04:28:57;;;;;;;;;;;19.10;50.50;;;;;;7674169;23;19908;-69
2023/02/04 04:31:57;;;;;;;;;;;19.10;50.60;;;;;;7674041;23;19908;-69
2023/02/04 04:34:58;;;;;;;;;;;19.10;50.50;;;;;;7674277;23;20468;-70
2023/02/04 04:37:59;;;;;;;;;;;19.10;50.60;;;;;;7674208;23;19979;-69
2023/02/04 04:41:00;;;;;;;;;;;19.10;50.60;;;;;;7674147;23;20284;-70
2023/02/04 04:44:00;;;;;;;;;;;19.10;50.60;;;;;;7672862;23;19912;-70
2023/02/04 04:47:02;;;;;;;;;;;19.10;50.60;;;;;;7672462;23;20047;-70
2023/02/04 04:50:02;;;;;;;;;;;19.10;50.60;;;;;;7674504;23;19904;-69
2023/02/04 04:53:03;;;;;;;;;;;19.10;50.60;;;;;;7672805;23;19904;-69
2023/02/04 04:56:04;;;;;;;;;;;19.10;50.60;;;;;;7673719;23;20346;-70
2023/02/04 05:02:42;;;;;;;;;;;19.10;50.60;;;;;;7673905;23;19904;-70
2023/02/04 05:05:43;;;;;;;;;;;19.10;50.60;;;;;;7674038;23;19943;-69
2023/02/04 05:08:44;;;;;;;;;;;19.10;50.60;;;;;;7672235;23;19988;-69
2023/02/04 05:11:46;;;;;;;;;;;19.10;50.60;;;;;;7673685;23;20003;-70
2023/02/04 05:14:47;;;;;;;;;;;19.10;50.60;;;;;;7674066;23;20277;-70
2023/02/04 05:17:48;;;;;;;;;;;19.10;50.60;;;;;;7674092;23;19908;-70
2023/02/04 05:20:49;;;;;;;;;;;19.10;50.60;;;;;;7673781;23;19908;-69
2023/02/04 05:23:49;;;;;;;;;;;19.10;50.60;;;;;;7673982;23;20346;-69
2023/02/04 05:26:50;;;;;;;;;;;19.10;50.60;;;;;;7673609;23;19946;-69
2023/02/04 05:29:50;;;;;;;;;;;19.10;50.60;;;;;;7672100;23;19935;-69
2023/02/04 05:32:51;;;;;;;;;;;19.10;50.60;;;;;;7671754;23;19947;-70
2023/02/04 05:35:51;;;;;;;;;;;19.10;50.60;;;;;;7673849;23;20286;-70
2023/02/04 05:38:52;;;;;;;;;;;19.10;50.60;;;;;;7673927;23;19904;-69
2023/02/04 05:41:52;;;;;;;;;;;19.10;50.60;;;;;;7673534;23;19904;-69
2023/02/04 05:44:53;;;;;;;;;;;19.10;50.70;;;;;;7673899;23;19938;-69
2023/02/04 05:47:55;;;;;;;;;;;19.10;50.60;;;;;;7671939;23;19970;-69
2023/02/04 05:50:55;;;;;;;;;;;19.10;50.60;;;;;;7673475;23;19904;-69
2023/02/04 05:53:56;;;;;;;;;;;19.10;50.60;;;;;;7673278;23;19904;-69
2023/02/04 05:56:56;;;;;;;;;;;19.10;50.60;;;;;;7673505;23;19954;-69
2023/02/04 05:59:57;;;;;;;;;;;19.10;50.60;;;;;;7673506;23;19990;-69
2023/02/04 06:02:57;;;;;;;;;;;19.10;50.60;;;;;;7673648;23;19908;-69
2023/02/04 06:05:58;;;;;;;;;;;19.10;50.60;;;;;;7671536;23;19908;-69
2023/02/04 06:08:59;;;;;;;;;;;19.10;50.60;;;;;;7673070;23;19904;-69
2023/02/04 06:11:59;;;;;;;;;;;19.10;50.60;;;;;;7673229;23;19911;-69
2023/02/04 06:15:00;;;;;;;;;;;19.10;50.60;;;;;;7673413;23;19912;-70
2023/02/04 06:18:00;;;;;;;;;;;19.10;50.60;;;;;;7673332;23;19913;-69
2023/02/04 06:21:03;;;;;;;;;;;19.10;50.60;;;;;;7671588;23;19982;-69
2023/02/04 06:24:04;;;;;;;;;;;19.10;50.60;;;;;;7672999;23;19983;-69
2023/02/04 06:27:04;;;;;;;;;;;19.10;50.70;;;;;;7673264;23;19930;-69
2023/02/04 06:30:05;;;;;;;;;;;19.10;50.60;;;;;;7673525;23;19912;-69
2023/02/04 06:33:06;;;;;;;;;;;19.10;50.60;;;;;;7672766;23;19923;-69
2023/02/04 06:36:06;;;;;;;;;;;19.10;50.60;;;;;;7673085;23;19904;-69
2023/02/04 06:39:07;;;;;;;;;;;19.10;50.50;;;;;;7673326;23;19958;-70
2023/02/04 06:42:07;;;;;;;;;;;19.10;50.60;;;;;;7673191;23;19943;-69
2023/02/04 06:45:10;;;;;;;;;;;19.10;50.60;;;;;;7672911;23;20375;-69
2023/02/04 06:48:10;;;;;;;;;;;19.10;50.60;;;;;;7672512;23;19919;-69
2023/02/04 06:51:11;;;;;;;;;;;19.10;50.50;;;;;;7671920;23;19904;-69
2023/02/04 06:54:12;;;;;;;;;;;19.10;50.50;;;;;;7672778;23;19955;-69
2023/02/04 06:57:12;;;;;;;;;;;19.10;50.60;;;;;;7671296;23;20442;-69
2023/02/04 07:00:13;;;;;;;;;;;19.10;50.50;;;;;;7673497;23;19919;-69
2023/02/04 07:03:15;;;;;;;;;;;19.10;50.60;;;;;;7672762;23;19951;-69
2023/02/04 07:06:15;;;;;;;;;;;19.10;50.50;;;;;;7673142;23;19909;-69
2023/02/04 07:09:16;;;;;;;;;;;19.10;50.50;;;;;;7672934;23;19904;-69
2023/02/04 07:12:16;;;;;;;;;;;19.10;50.50;;;;;;7672016;23;19905;-69
2023/02/04 07:15:17;;;;;;;;;;;19.10;50.50;;;;;;7671159;23;20209;-69
2023/02/04 07:18:18;;;;;;;;;;;19.10;50.60;;;;;;7671875;23;19908;-69
2023/02/04 07:21:19;;;;;;;;;;;19.10;50.50;;;;;;7673426;23;19927;-69
2023/02/04 07:24:20;;;;;;;;;;;19.20;50.60;;;;;;7675220;23;20220;-69
2023/02/04 07:27:20;;;;;;;;;;;19.10;50.50;;;;;;7673509;23;19912;-69
2023/02/04 07:30:21;;;;;;;;;;;19.10;50.60;;;;;;7675632;23;19904;-69
2023/02/04 07:33:22;;;;;;;;;;;19.20;50.60;;;;;;7675112;23;19916;-69
2023/02/04 07:36:23;;;;;;;;;;;19.10;50.60;;;;;;7675124;23;20372;-69
2023/02/04 07:39:23;;;;;;;;;;;19.10;50.60;;;;;;7675268;23;19912;-69
2023/02/04 07:42:24;;;;;;;;;;;19.10;50.60;;;;;;7673658;23;19911;-69
2023/02/04 07:45:24;;;;;;;;;;;19.10;50.60;;;;;;7673305;23;19910;-69
2023/02/04 07:48:25;;;;;;;;;;;19.10;50.60;;;;;;7674716;23;19923;-69
2023/02/04 07:51:26;;;;;;;;;;;19.10;50.60;;;;;;7675282;23;20240;-69
2023/02/04 07:54:27;;;;;;;;;;;19.20;50.70;;;;;;7675005;23;19932;-69
2023/02/04 07:57:28;;;;;;;;;;;19.10;50.60;;;;;;7674904;23;19990;-69
2023/02/04 08:00:29;;;;;;;;;;;19.10;50.60;;;;;;7675004;23;19916;-69
2023/02/04 08:03:30;;;;;;;;;;;19.10;50.60;;;;;;7674846;23;19905;-69
2023/02/04 08:06:30;;;;;;;;;;;19.10;50.60;;;;;;7674958;23;19955;-69
2023/02/04 08:09:31;;;;;;;;;;;19.10;50.60;;;;;;7672650;23;19959;-69
2023/02/04 08:12:32;;;;;;;;;;;19.10;50.60;;;;;;7675228;23;20324;-69
2023/02/04 08:15:32;;;;;;;;;;;19.10;50.60;;;;;;7672669;23;19919;-69
2023/02/04 08:18:33;;;;;;;;;;;19.10;50.60;;;;;;7674261;23;19908;-69
2023/02/04 08:21:33;;;;;;;;;;;19.10;50.50;;;;;;7674665;23;19958;-69
2023/02/04 08:24:34;;;;;;;;;;;19.20;50.70;;;;;;7674001;23;20124;-69
2023/02/04 08:27:34;;;;;;;;;;;19.20;50.60;;;;;;7674154;23;19908;-69
2023/02/04 08:30:35;;;;;;;;;;;19.20;50.60;;;;;;7673712;23;20332;-69
2023/02/04 08:33:37;;;;;;;;;;;19.20;50.70;;;;;;7672580;23;19920;-69
2023/02/04 08:36:37;;;;;;;;;;;19.20;50.70;;;;;;7674138;23;19962;-69
2023/02/04 08:39:39;;;;;;;;;;;19.20;50.70;;;;;;7672598;23;19912;-69
2023/02/04 08:42:39;;;;;;;;;;;19.20;50.70;;;;;;7674257;23;19905;-69
2023/02/04 08:45:40;;;;;;;;;;;19.20;50.70;;;;;;7673738;23;19928;-69
2023/02/04 08:48:40;;;;;;;;;;;19.10;50.60;;;;;;7673809;23;19904;-69
2023/02/04 08:51:41;;;;;;;;;;;19.10;50.60;;;;;;7672810;23;19986;-69
2023/02/04 08:54:42;;;;;;;;;;;19.20;50.70;;;;;;7674136;23;19957;-69
2023/02/04 08:57:42;;;;;;;;;;;19.10;50.60;;;;;;7673785;23;20343;-69
2023/02/04 09:00:43;;;;;;;;;;;19.20;50.70;;;;;;7673810;23;19912;-69
2023/02/04 09:03:44;;;;;;;;;;;19.10;50.60;;;;;;7672065;23;19935;-69
2023/02/04 09:06:45;;;;;;;;;;;19.20;50.70;;;;;;7674386;23;19912;-69
2023/02/04 09:09:46;;;;;;;;;;;19.10;50.60;;;;;;7672356;23;19935;-69
2023/02/04 09:12:46;;;;;;;;;;;19.20;50.70;;;;;;7672847;23;19987;-69
2023/02/04 09:15:47;;;;;;;;;;;19.20;51.40;;;;;;7673714;23;20239;-69
2023/02/04 09:18:48;;;;;;;;;;;19.20;50.70;;;;;;7671987;23;19997;-69
2023/02/04 09:21:48;;;;;;;;;;;19.20;50.70;;;;;;7673760;23;19932;-69
2023/02/04 09:24:49;;;;;;;;;;;19.10;50.60;;;;;;7672399;23;19915;-69
2023/02/04 09:27:49;;;;;;;;;;;19.10;50.70;;;;;;7671758;23;20291;-69
2023/02/04 09:30:50;;;;;;;;;;;19.10;50.70;;;;;;7673414;23;19908;-69
2023/02/04 09:33:50;;;;;;;;;;;19.10;50.70;;;;;;7673855;23;19999;-69
2023/02/04 09:36:51;;;;;;;;;;;19.10;50.70;;;;;;7671751;23;19904;-69
2023/02/04 09:39:52;;;;;;;;;;;19.20;50.70;;;;;;7673080;23;19993;-69
2023/02/04 09:42:53;;;;;;;;;;;19.10;50.70;;;;;;7673271;23;19904;-70
2023/02/04 09:45:54;;;;;;;;;;;19.10;50.70;;;;;;7671561;23;20239;-69
2023/02/04 09:48:56;;;;;;;;;;;19.20;50.70;;;;;;7672909;23;19908;-69
2023/02/04 09:51:57;;;;;;;;;;;19.20;50.80;;;;;;7673325;23;19999;-69
2023/02/04 09:54:59;;;;;;;;;;;19.20;50.80;;;;;;7671658;23;19913;-69
2023/02/04 09:57:59;;;;;;;;;;;19.10;50.70;;;;;;7672964;23;19998;-69
2023/02/04 10:01:16;;;;;;;;;;;19.10;50.60;;;;;;7672959;23;19971;-69
2023/02/04 10:04:17;;;;;;;;;;;19.20;50.70;;;;;;7671472;23;19924;-69
2023/02/04 10:07:21;;;;;;;;;;;19.20;50.80;;;;;;7671462;23;20015;-69
2023/02/04 10:10:24;;;;;;;;;;;19.20;50.70;;;;;;7671340;23;19991;-69
2023/02/04 10:13:30;;;;;;;;;;;19.20;50.60;;;;;;7671747;23;19956;-69
2023/02/04 10:16:32;;;;;;;;;;;19.20;50.60;;;;;;7672679;23;19992;-69
2023/02/04 10:19:33;;;;;;;;;;;19.20;50.70;;;;;;7673019;23;19904;-69
2023/02/04 10:22:33;;;;;;;;;;;19.20;50.60;;;;;;7672334;23;19911;-70
2023/02/04 10:25:34;;;;;;;;;;;19.10;50.60;;;;;;7673316;23;19905;-69
2023/02/04 10:28:36;;;;;;;;;;;19.20;50.70;;;;;;7672787;23;20236;-69
2023/02/04 10:31:38;;;;;;;;;;;19.20;50.60;;;;;;7671229;23;19908;-69
2023/02/04 10:34:38;;;;;;;;;;;19.20;50.70;;;;;;7673101;23;19992;-70
2023/02/04 10:37:39;;;;;;;;;;;19.20;50.70;;;;;;7672854;23;19904;-69
2023/02/04 10:40:40;;;;;;;;;;;19.20;50.70;;;;;;7672631;23;19958;-69
2023/02/04 10:43:41;;;;;;;;;;;19.20;50.70;;;;;;7671464;23;19911;-70
2023/02/04 10:46:41;;;;;;;;;;;19.10;50.70;;;;;;7671245;23;19940;-69
2023/02/04 10:49:51;;;;;;;;;;;19.20;50.80;;;;;;7671198;23;20040;-69
2023/02/04 10:52:54;;;;;;;;;;;19.10;50.70;;;;;;7661752;23;19904;-71
2023/02/04 10:55:55;;;;;;;;;;;19.10;50.70;;;;;;7673888;23;19915;-71
2023/02/04 10:58:56;;;;;;;;;;;19.20;50.80;;;;;;7673439;23;19955;-70
2023/02/04 11:01:58;;;;;;;;;;;19.20;50.40;;;;;;7672514;23;20244;-76
2023/02/04 11:04:59;;;;;;;;;;;19.20;50.80;;;;;;7674594;23;20303;-75
2023/02/04 11:08:00;;;;;;;;;;;19.20;50.80;;;;;;7674815;23;19959;-75
2023/02/04 11:11:03;;;;;;;;;;;19.20;50.80;;;;;;7672272;23;19991;-76
2023/02/04 11:14:04;;;;;;;;;;;19.10;50.80;;;;;;7673621;23;19908;-76
2023/02/04 11:17:05;;;;;;;;;;;19.20;51.60;;;;;;7673184;23;19923;-75
2023/02/04 11:20:13;;;;;;;;;;;19.20;50.90;;;;;;7673100;23;19935;-76
2023/02/04 11:23:17;;;;;;;;;;;19.20;50.80;;;;;;7675164;23;19983;-75
2023/02/04 11:26:30;;;;;;;;;;;19.20;50.90;;;;;;7673541;23;19912;-75
2023/02/04 11:29:36;;;;;;;;;;;19.20;51.00;;;;;;7674598;23;19911;-76
2023/02/04 11:32:37;;;;;;;;;;;19.20;50.90;;;;;;7673971;23;19917;-75
2023/02/04 11:35:38;;;;;;;;;;;19.20;50.90;;;;;;7672764;23;19916;-73
2023/02/04 11:38:39;;;;;;;;;;;19.10;50.90;;;;;;7673417;23;20366;-73
2023/02/04 11:41:43;;;;;;;;;;;19.20;51.00;;;;;;7672830;23;20003;-73
2023/02/04 11:45:00;;;;;;;;;;;19.20;51.00;;;;;;7673809;23;20378;-72
2023/02/04 11:48:11;;;;;;;;;;;19.20;50.90;;;;;;7672998;23;19908;-71
2023/02/04 11:51:14;;;;;;;;;;;19.20;51.00;;;;;;7672441;23;20563;-76
2023/02/04 11:54:18;;;;;;;;;;;19.20;51.00;;;;;;7672917;23;19952;-75
2023/02/04 11:57:19;;;;;;;;;;;19.20;51.10;;;;;;7674383;23;19909;-76
2023/02/04 12:00:22;;;;;;;;;;;19.20;50.90;;;;;;7674946;23;19951;-76
2023/02/04 12:03:23;;;;;;;;;;;19.20;50.40;;;;;;7685506;23;19905;-78
2023/02/04 12:06:25;;;;;;;;;;;19.20;50.70;;;;;;7686483;23;20240;-78
2023/02/04 12:09:26;;;;;;;;;;;19.20;50.80;;;;;;7684682;23;19904;-78
2023/02/04 12:12:32;;;;;;;;;;;19.20;50.80;;;;;;7685093;23;19908;-78
2023/02/04 12:15:36;;;;;;;;;;;19.20;50.80;;;;;;7684415;23;20201;-77
2023/02/04 12:18:38;;;;;;;;;;;19.20;50.80;;;;;;7683998;23;19987;-76
2023/02/04 12:21:39;;;;;;;;;;;19.20;50.90;;;;;;7681776;23;19912;-78
2023/02/04 12:24:39;;;;;;;;;;;19.20;50.90;;;;;;7684626;23;20057;-79
2023/02/04 12:27:40;;;;;;;;;;;19.20;50.90;;;;;;7684388;23;19916;-77
2023/02/04 12:30:41;;;;;;;;;;;19.20;50.90;;;;;;7683704;23;19904;-79
2023/02/04 12:33:41;;;;;;;;;;;19.20;50.90;;;;;;7691198;23;20035;-79
2023/02/04 12:36:42;;;;;;;;;;;19.20;50.90;;;;;;7687541;23;19927;-78
2023/02/04 12:39:43;;;;;;;;;;;19.20;51.00;;;;;;7686307;23;19940;-78
2023/02/04 12:42:43;;;;;;;;;;;19.20;51.00;;;;;;7686768;23;19908;-77
2023/02/04 12:45:46;;;;;;;;;;;19.20;51.00;;;;;;7687792;23;19950;-79
2023/02/04 12:48:47;;;;;;;;;;;19.20;51.70;;;;;;7686357;23;19931;-79
2023/02/04 12:51:48;;;;;;;;;;;19.20;51.10;;;;;;7684080;23;19912;-81
2023/02/04 12:54:49;;;;;;;;;;;19.20;51.10;;;;;;7718397;23;19910;-79
2023/02/04 12:57:50;;;;;;;;;;;19.20;51.10;;;;;;7693363;23;19916;-78
2023/02/04 13:00:51;;;;;;;;;;;19.20;51.10;;;;;;7684142;23;20278;-75
2023/02/04 13:03:53;;;;;;;;;;;19.20;51.10;;;;;;7685956;23;20276;-79
2023/02/04 13:06:54;;;;;;;;;;;19.20;51.10;;;;;;7689615;23;19986;-81
2023/02/04 13:09:54;;;;;;;;;;;19.20;51.20;;;;;;7688352;23;19910;-79
2023/02/04 13:12:55;;;;;;;;;;;19.20;51.20;;;;;;7684834;23;19918;-78
2023/02/04 13:15:58;;;;;;;;;;;19.20;51.20;;;;;;7681548;23;19980;-78
2023/02/04 13:18:58;;;;;;;;;;;19.20;51.20;;;;;;7683322;23;19908;-75
2023/02/04 13:21:59;;;;;;;;;;;19.20;51.20;;;;;;7707397;23;19904;-77
2023/02/04 13:25:00;;;;;;;;;;;19.20;51.20;;;;;;7706648;23;19915;-75
2023/02/04 13:28:00;;;;;;;;;;;19.20;51.20;;;;;;7708029;23;20346;-72
2023/02/04 13:31:01;;;;;;;;;;;19.20;51.20;;;;;;7674299;23;19905;-71
2023/02/04 13:34:02;;;;;;;;;;;19.20;51.20;;;;;;7673042;23;19920;-75
2023/02/04 13:37:02;;;;;;;;;;;19.20;51.20;;;;;;7673835;23;20320;-75
2023/02/04 13:40:04;;;;;;;;;;;19.20;51.20;;;;;;7674698;23;20375;-73
2023/02/04 13:43:05;;;;;;;;;;;19.20;51.20;;;;;;7673299;23;19908;-75
2023/02/04 13:46:07;;;;;;;;;;;19.20;51.20;;;;;;7673573;23;19978;-76
2023/02/04 13:49:07;;;;;;;;;;;19.20;51.20;;;;;;7671114;23;19908;-75
2023/02/04 13:52:09;;;;;;;;;;;19.20;51.20;;;;;;7673302;23;19966;-74
2023/02/04 13:55:09;;;;;;;;;;;19.20;51.20;;;;;;7673736;23;19947;-73
2023/02/04 13:58:10;;;;;;;;;;;19.20;51.20;;;;;;7674160;23;20348;-73
2023/02/04 14:01:11;;;;;;;;;;;19.20;51.20;;;;;;7671230;23;19952;-72
2023/02/04 14:04:11;;;;;;;;;;;19.10;51.10;;;;;;7673131;23;19905;-74
2023/02/04 14:07:12;;;;;;;;;;;19.20;51.20;;;;;;7670689;23;19916;-72
2023/02/04 14:10:13;;;;;;;;;;;19.20;51.20;;;;;;7670634;23;19905;-72
2023/02/04 14:13:13;;;;;;;;;;;19.20;51.20;;;;;;7670809;23;19915;-73
2023/02/04 14:16:14;;;;;;;;;;;19.20;51.20;;;;;;7672490;23;20332;-72
2023/02/04 14:19:15;;;;;;;;;;;19.20;51.20;;;;;;7670668;23;19908;-76
2023/02/04 14:22:16;;;;;;;;;;;19.20;51.20;;;;;;7673904;23;20388;-75
2023/02/04 14:25:17;;;;;;;;;;;19.20;51.20;;;;;;7673064;23;19983;-77
2023/02/04 14:28:18;;;;;;;;;;;19.20;51.20;;;;;;7669659;23;19923;-76
2023/02/04 14:31:18;;;;;;;;;;;19.20;51.20;;;;;;7671813;23;20295;-74
2023/02/04 14:34:19;;;;;;;;;;;19.20;51.20;;;;;;7672069;23;19942;-77
2023/02/04 14:37:19;;;;;;;;;;;19.20;51.20;;;;;;7670471;23;20820;-73
2023/02/04 14:40:20;;;;;;;;;;;19.20;51.20;;;;;;7669893;23;19919;-72
2023/02/04 14:43:20;;;;;;;;;;;19.20;51.20;;;;;;7671025;23;19912;-71
2023/02/04 14:46:21;;;;;;;;;;;19.20;51.20;;;;;;7672413;23;19908;-71
2023/02/04 14:49:22;;;;;;;;;;;19.20;51.20;;;;;;7670265;23;19951;-71
2023/02/04 14:52:22;;;;;;;;;;;19.20;51.20;;;;;;7672355;23;19915;-73
2023/02/04 14:55:23;;;;;;;;;;;19.20;51.30;;;;;;7671450;23;19905;-72
2023/02/04 14:58:24;;;;;;;;;;;19.20;51.20;;;;;;7671071;23;19904;-72
2023/02/04 15:01:26;;;;;;;;;;;19.20;51.30;;;;;;7672026;23;19904;-73
2023/02/04 15:04:26;;;;;;;;;;;19.20;50.80;;;;;;7670386;23;19955;-74
2023/02/04 15:07:28;;;;;;;;;;;19.10;50.20;;;;;;7671851;23;19912;-73
2023/02/04 15:10:28;;;;;;;;;;;19.20;48.60;;;;;;7670618;23;19912;-73
2023/02/04 15:13:29;;;;;;;;;;;19.20;48.40;;;;;;7670421;23;19905;-73
2023/02/04 15:16:30;;;;;;;;;;;19.20;49.30;;;;;;7670491;23;20019;-73
2023/02/04 15:19:30;;;;;;;;;;;19.20;50.00;;;;;;7669708;23;19908;-74
2023/02/04 15:22:31;;;;;;;;;;;19.20;50.10;;;;;;7670831;23;19908;-73
2023/02/04 15:25:31;;;;;;;;;;;19.20;50.20;;;;;;7671675;23;19908;-73
2023/02/04 15:28:32;;;;;;;;;;;19.20;50.20;;;;;;7669829;23;19912;-74
2023/02/04 15:31:32;;;;;;;;;;;19.20;50.40;;;;;;7670386;23;19962;-73
2023/02/04 15:34:33;;;;;;;;;;;19.20;50.40;;;;;;7672181;23;19923;-72
2023/02/04 15:37:34;;;;;;;;;;;19.20;50.40;;;;;;7671986;23;19932;-73
2023/02/04 15:40:34;;;;;;;;;;;19.20;50.60;;;;;;7673717;23;19983;-76
2023/02/04 15:43:35;;;;;;;;;;;19.20;50.50;;;;;;7674943;23;19928;-76
2023/02/04 15:46:35;;;;;;;;;;;19.20;50.50;;;;;;7673437;23;19912;-79
2023/02/04 15:49:36;;;;;;;;;;;19.20;50.60;;;;;;7674396;23;19927;-76
2023/02/04 15:52:37;;;;;;;;;;;19.20;50.70;;;;;;7674792;23;19904;-73
2023/02/04 15:55:37;;;;;;;;;;;19.20;50.60;;;;;;7674069;23;19950;-76
2023/02/04 15:58:38;;;;;;;;;;;19.20;50.70;;;;;;7675676;23;19915;-75
2023/02/04 16:01:40;;;;;;;;;;;19.20;50.70;;;;;;7673443;23;19908;-75
2023/02/04 16:04:43;;;;;;;;;;;19.20;50.70;;;;;;7673226;23;19913;-75
2023/02/04 16:07:44;;;;;;;;;;;19.20;50.70;;;;;;7673019;23;19940;-76
2023/02/04 16:10:46;;;;;;;;;;;19.20;50.70;;;;;;7673771;23;19983;-75
2023/02/04 16:13:47;;;;;;;;;;;19.20;50.70;;;;;;7674969;23;19920;-74
2023/02/04 16:16:47;;;;;;;;;;;19.20;50.70;;;;;;7674657;23;19905;-74
2023/02/04 16:19:48;;;;;;;;;;;19.20;50.70;;;;;;7673888;23;19908;-73
2023/02/04 16:22:49;;;;;;;;;;;19.20;50.70;;;;;;7673796;23;19908;-73
2023/02/04 16:25:50;;;;;;;;;;;19.20;50.70;;;;;;7673450;23;19941;-74
2023/02/04 16:28:53;;;;;;;;;;;19.20;50.70;;;;;;7673106;23;19962;-74
2023/02/04 16:31:55;;;;;;;;;;;19.20;50.80;;;;;;7674313;23;19906;-77
2023/02/04 16:34:58;;;;;;;;;;;19.20;50.90;;;;;;7674720;23;20030;-75
2023/02/04 16:38:01;;;;;;;;;;;19.20;50.80;;;;;;7677973;23;19908;-73
2023/02/04 16:41:02;;;;;;;;;;;19.20;50.80;;;;;;7675937;23;19911;-73
2023/02/04 16:44:03;;;;;;;;;;;19.20;50.90;;;;;;7675862;23;19998;-74
2023/02/04 16:47:07;;;;;;;;;;;19.20;50.80;;;;;;7672607;23;19919;-76
2023/02/04 16:50:08;;;;;;;;;;;19.20;50.80;;;;;;7671735;23;19904;-72
2023/02/04 16:53:13;;;;;;;;;;;19.20;50.90;;;;;;7672678;23;20320;-76
2023/02/04 16:56:14;;;;;;;;;;;19.20;50.80;;;;;;7673767;23;19904;-74
2023/02/04 16:59:14;;;;;;;;;;;19.20;50.90;;;;;;7671442;23;19927;-73
2023/02/04 17:02:15;;;;;;;;;;;19.20;50.80;;;;;;7671575;23;19955;-75
2023/02/04 17:05:15;;;;;;;;;;;19.20;50.80;;;;;;7671101;23;19905;-75
2023/02/04 17:08:17;;;;;;;;;;;19.20;50.80;;;;;;7671274;23;19908;-75
2023/02/04 17:11:32;;;;;;;;;;;19.20;50.90;;;;;;7672885;23;19910;-74
2023/02/04 17:14:33;;;;;;;;;;;19.20;50.90;;;;;;7671490;23;20058;-74
2023/02/04 17:17:34;;;;;;;;;;;19.20;50.90;;;;;;7673785;23;19959;-75
2023/02/04 17:20:34;;;;;;;;;;;19.20;50.80;;;;;;7672919;23;19904;-74
2023/02/04 17:23:36;;;;;;;;;;;19.20;50.80;;;;;;7673455;23;20302;-75
2023/02/04 17:26:38;;;;;;;;;;;19.20;50.80;;;;;;7672803;23;19909;-76
2023/02/04 17:29:38;;;;;;;;;;;19.20;50.80;;;;;;7670932;23;19944;-74
2023/02/04 17:32:39;;;;;;;;;;;19.20;50.80;;;;;;7673671;23;19912;-75
2023/02/04 17:35:40;;;;;;;;;;;19.20;50.80;;;;;;7672308;23;19911;-73